createdAt,value
2022-11-28T00:01:25.235Z,4.73
2022-11-28T00:03:52.388Z,4.92
2022-11-28T00:06:19.866Z,4.85
2022-11-28T00:08:47.544Z,4.84
2022-11-28T00:11:15.938Z,4.67
2022-11-28T00:13:43.534Z,4.75
2022-11-28T00:16:16.188Z,4.83
2022-11-28T00:18:43.728Z,4.76
2022-11-28T00:21:13.189Z,4.73
2022-11-28T00:23:41.166Z,4.32
2022-11-28T00:26:14.185Z,4.65
2022-11-28T00:28:41.331Z,4.61
2022-11-28T00:31:13.812Z,4.55
2022-11-28T00:33:41.423Z,4.52
2022-11-28T00:36:08.915Z,4.46
2022-11-28T00:38:35.948Z,4.49
2022-11-28T00:41:18.067Z,4.35
2022-11-28T00:43:47.064Z,4.46
2022-11-28T00:46:15.492Z,4.45
2022-11-28T00:48:42.631Z,4.17
2022-11-28T00:51:14.315Z,4.45
2022-11-28T00:53:42.690Z,4.44
2022-11-28T00:56:11.960Z,4.07
2022-11-28T00:58:39.967Z,4.20
2022-11-28T01:01:37.981Z,4.39
2022-11-28T01:04:08.323Z,4.33
2022-11-28T01:06:44.465Z,4.36
2022-11-28T01:09:17.565Z,4.33
2022-11-28T01:11:46.189Z,4.32
2022-11-28T01:14:13.698Z,4.39
2022-11-28T01:16:40.807Z,4.40
2022-11-28T01:19:08.062Z,3.94
2022-11-28T01:21:36.056Z,4.26
2022-11-28T01:24:03.262Z,4.45
2022-11-28T01:26:30.673Z,4.46
2022-11-28T01:28:59.725Z,4.27
2022-11-28T01:31:28.905Z,4.40
2022-11-28T01:33:56.882Z,4.24
2022-11-28T01:36:24.456Z,4.41
2022-11-28T01:38:52.426Z,4.40
2022-11-28T01:41:24.807Z,4.50
2022-11-28T01:44:08.681Z,4.47
2022-11-28T01:46:36.873Z,4.43
2022-11-28T01:49:22.264Z,4.55
2022-11-28T01:51:56.104Z,4.62
2022-11-28T01:54:25.411Z,4.63
2022-11-28T01:56:58.202Z,4.72
2022-11-28T01:59:28.232Z,4.71
2022-11-28T02:01:55.436Z,4.54
2022-11-28T02:04:25.901Z,4.62
2022-11-28T02:06:52.951Z,4.70
2022-11-28T02:09:20.159Z,4.35
2022-11-28T02:12:08.011Z,4.75
2022-11-28T02:14:46.207Z,4.72
2022-11-28T02:17:15.934Z,4.74
2022-11-28T02:20:01.344Z,4.72
2022-11-28T02:22:40.974Z,4.68
2022-11-28T02:25:52.699Z,4.73
2022-11-28T02:28:30.033Z,4.32
2022-11-28T02:31:33.358Z,4.76
2022-11-28T02:34:08.327Z,4.70
2022-11-28T02:36:50.144Z,4.81
2022-11-28T02:39:25.302Z,4.61
2022-11-28T02:42:15.072Z,4.75
2022-11-28T02:45:27.465Z,4.68
2022-11-28T02:48:03.595Z,4.80
2022-11-28T02:50:38.428Z,4.76
2022-11-28T02:53:20.001Z,4.78
2022-11-28T02:55:47.619Z,4.74
2022-11-28T02:58:14.696Z,4.46
2022-11-28T03:00:46.897Z,4.52
2022-11-28T03:03:27.120Z,4.44
2022-11-28T03:06:24.339Z,4.80
2022-11-28T03:09:19.619Z,4.78
2022-11-28T03:11:58.356Z,4.52
2022-11-28T03:14:36.705Z,4.75
2022-11-28T03:17:03.627Z,4.75
2022-11-28T03:19:39.093Z,4.72
2022-11-28T03:22:24.899Z,4.72
2022-11-28T03:25:06.105Z,4.57
2022-11-28T03:27:38.788Z,4.56
2022-11-28T03:30:12.155Z,4.51
2022-11-28T03:32:40.285Z,4.50
2022-11-28T03:35:14.063Z,4.25
2022-11-28T03:37:47.747Z,4.43
2022-11-28T03:40:26.900Z,4.45
2022-11-28T03:43:01.422Z,4.30
2022-11-28T03:45:32.506Z,4.04
2022-11-28T03:48:05.537Z,4.40
2022-11-28T03:50:47.538Z,4.41
2022-11-28T03:53:26.007Z,4.45
2022-11-28T03:56:04.265Z,4.37
2022-11-28T03:58:36.453Z,4.39
2022-11-28T04:01:27.245Z,4.41
2022-11-28T04:04:03.200Z,4.50
2022-11-28T04:06:37.722Z,4.43
2022-11-28T04:09:14.533Z,4.43
2022-11-28T04:11:51.648Z,4.38
2022-11-28T04:14:29.441Z,4.40
2022-11-28T04:17:17.361Z,4.39
2022-11-28T04:19:51.689Z,4.42
2022-11-28T04:22:30.841Z,4.41
2022-11-28T04:25:02.441Z,4.36
2022-11-28T04:27:35.417Z,4.35
2022-11-28T04:30:04.736Z,4.40
2022-11-28T04:32:36.162Z,4.40
2022-11-28T04:35:26.132Z,4.35
2022-11-28T04:37:55.815Z,4.34
2022-11-28T04:40:24.741Z,4.13
2022-11-28T04:42:56.492Z,4.22
2022-11-28T04:45:30.462Z,4.29
2022-11-28T04:47:58.029Z,4.30
2022-11-28T04:50:31.211Z,4.25
2022-11-28T04:53:10.117Z,4.26
2022-11-28T04:56:01.547Z,4.24
2022-11-28T04:58:35.446Z,4.28
2022-11-28T05:01:05.756Z,4.30
2022-11-28T05:03:32.881Z,4.36
2022-11-28T05:06:01.453Z,4.16
2022-11-28T05:08:28.748Z,4.37
2022-11-28T05:10:55.878Z,4.34
2022-11-28T05:13:22.920Z,4.38
2022-11-28T05:15:49.929Z,4.38
2022-11-28T05:18:16.932Z,4.39
2022-11-28T05:20:44.613Z,4.29
2022-11-28T05:23:11.642Z,4.44
2022-11-28T05:25:39.968Z,4.07
2022-11-28T05:28:07.990Z,4.48
2022-11-28T05:30:35.063Z,4.50
2022-11-28T05:33:02.698Z,4.44
2022-11-28T05:35:29.754Z,4.52
2022-11-28T05:37:56.827Z,4.55
2022-11-28T05:40:23.876Z,4.58
2022-11-28T05:42:50.869Z,4.59
2022-11-28T05:45:17.881Z,4.48
2022-11-28T05:47:44.858Z,4.51
2022-11-28T05:50:11.932Z,4.50
2022-11-28T05:52:38.937Z,4.48
2022-11-28T05:55:06.541Z,4.49
2022-11-28T05:57:33.598Z,4.39
2022-11-28T06:00:00.634Z,4.47
2022-11-28T06:02:27.716Z,4.50
2022-11-28T06:04:54.790Z,4.47
2022-11-28T06:07:21.934Z,4.42
2022-11-28T06:09:48.935Z,4.52
2022-11-28T06:12:15.929Z,4.47
2022-11-28T06:14:42.892Z,4.45
2022-11-28T06:17:09.958Z,4.49
2022-11-28T06:19:37.173Z,4.50
2022-11-28T06:22:04.214Z,4.53
2022-11-28T06:24:31.176Z,4.56
2022-11-28T06:26:58.173Z,4.59
2022-11-28T06:29:25.179Z,4.58
2022-11-28T06:31:52.235Z,4.50
2022-11-28T06:34:19.252Z,4.53
2022-11-28T06:36:46.272Z,4.45
2022-11-28T06:39:15.444Z,4.50
2022-11-28T06:41:43.580Z,4.44
2022-11-28T06:44:15.008Z,4.44
2022-11-28T06:46:42.818Z,4.39
2022-11-28T06:49:13.114Z,4.42
2022-11-28T06:51:41.643Z,4.35
2022-11-28T06:54:09.147Z,4.29
2022-11-28T06:56:36.165Z,4.27
2022-11-28T06:59:03.251Z,4.21
2022-11-28T07:01:32.237Z,4.17
2022-11-28T07:03:59.316Z,4.30
2022-11-28T07:06:27.146Z,4.06
2022-11-28T07:08:57.531Z,3.74
2022-11-28T07:11:30.540Z,4.30
2022-11-28T07:13:58.689Z,4.26
2022-11-28T07:16:27.898Z,4.31
2022-11-28T07:18:56.471Z,4.20
2022-11-28T07:21:24.012Z,4.09
2022-11-28T07:23:51.507Z,4.28
2022-11-28T07:26:22.926Z,3.79
2022-11-28T07:28:51.155Z,4.14
2022-11-28T07:31:20.937Z,4.20
2022-11-28T07:33:50.429Z,4.21
2022-11-28T07:36:20.968Z,4.19
2022-11-28T07:38:49.910Z,4.18
2022-11-28T07:41:17.589Z,4.24
2022-11-28T07:43:46.442Z,4.26
2022-11-28T07:46:17.305Z,4.28
2022-11-28T07:48:45.013Z,4.17
2022-11-28T07:51:15.015Z,3.87
2022-11-28T07:53:42.911Z,4.00
2022-11-28T07:56:14.924Z,3.93
2022-11-28T07:58:43.574Z,4.21
2022-11-28T08:01:21.556Z,4.24
2022-11-28T08:03:48.896Z,3.80
2022-11-28T08:06:17.468Z,4.32
2022-11-28T08:08:46.950Z,4.31
2022-11-28T08:11:15.611Z,4.31
2022-11-28T08:13:43.030Z,3.99
2022-11-28T08:16:14.359Z,4.39
2022-11-28T08:18:41.536Z,4.40
2022-11-28T08:21:10.474Z,4.50
2022-11-28T08:23:38.518Z,4.51
2022-11-28T08:26:08.438Z,4.32
2022-11-28T08:28:35.892Z,4.59
2022-11-28T08:31:10.786Z,4.56
2022-11-28T08:33:38.186Z,4.54
2022-11-28T08:36:06.590Z,4.57
2022-11-28T08:38:33.661Z,4.60
2022-11-28T08:41:02.255Z,4.61
2022-11-28T08:43:29.415Z,4.67
2022-11-28T08:45:56.846Z,4.66
2022-11-28T08:48:24.033Z,4.72
2022-11-28T08:50:51.464Z,4.73
2022-11-28T08:53:18.814Z,4.45
2022-11-28T08:55:45.834Z,4.87
2022-11-28T08:58:13.343Z,4.88
2022-11-28T09:00:42.237Z,4.90
2022-11-28T09:03:14.703Z,4.91
2022-11-28T09:05:45.257Z,4.98
2022-11-28T09:08:13.721Z,5.06
2022-11-28T09:10:43.727Z,5.05
2022-11-28T09:13:12.979Z,5.21
2022-11-28T09:15:45.033Z,5.21
2022-11-28T09:18:13.909Z,5.17
2022-11-28T09:20:41.997Z,5.11
2022-11-28T09:23:09.805Z,5.15
2022-11-28T09:25:39.813Z,5.29
2022-11-28T09:28:07.184Z,5.27
2022-11-28T09:30:34.510Z,5.31
2022-11-28T09:33:01.673Z,5.34
2022-11-28T09:35:28.837Z,5.39
2022-11-28T09:37:57.441Z,5.31
2022-11-28T09:40:40.345Z,5.28
2022-11-28T09:43:35.721Z,5.38
2022-11-28T09:46:08.215Z,5.01
2022-11-28T09:48:38.163Z,5.45
2022-11-28T09:51:14.473Z,5.48
2022-11-28T09:54:00.316Z,5.39
2022-11-28T09:56:27.505Z,5.40
2022-11-28T09:59:04.322Z,5.59
2022-11-28T10:01:44.267Z,5.68
2022-11-28T10:04:31.622Z,5.77
2022-11-28T10:07:01.572Z,5.73
2022-11-28T10:09:33.860Z,5.90
2022-11-28T10:12:15.881Z,6.00
2022-11-28T10:15:08.674Z,5.89
2022-11-28T10:17:57.307Z,6.05
2022-11-28T10:20:28.582Z,5.67
2022-11-28T10:22:59.061Z,5.84
2022-11-28T10:25:37.546Z,5.97
2022-11-28T10:28:15.269Z,5.88
2022-11-28T10:30:48.387Z,6.04
2022-11-28T10:33:29.542Z,5.62
2022-11-28T10:36:01.883Z,6.11
2022-11-28T10:38:32.180Z,5.47
2022-11-28T10:41:20.549Z,6.04
2022-11-28T10:43:59.366Z,5.97
2022-11-28T10:46:53.412Z,5.86
2022-11-28T10:49:46.578Z,5.85
2022-11-28T10:52:16.665Z,5.82
2022-11-28T10:54:52.430Z,5.82
2022-11-28T10:58:01.150Z,5.78
2022-11-28T11:00:28.213Z,5.69
2022-11-28T11:02:57.084Z,5.69
2022-11-28T11:05:25.760Z,5.62
2022-11-28T11:07:56.449Z,5.64
2022-11-28T11:10:37.246Z,5.57
2022-11-28T11:13:25.876Z,5.69
2022-11-28T11:16:03.817Z,5.37
2022-11-28T11:18:34.592Z,5.64
2022-11-28T11:21:24.480Z,5.55
2022-11-28T11:24:18.148Z,5.62
2022-11-28T11:26:48.664Z,5.57
2022-11-28T11:29:27.866Z,5.48
2022-11-28T11:31:55.611Z,5.17
2022-11-28T11:34:23.739Z,5.42
2022-11-28T11:36:51.587Z,5.46
2022-11-28T11:39:18.830Z,5.41
2022-11-28T11:41:49.317Z,5.42
2022-11-28T11:44:20.486Z,5.39
2022-11-28T11:46:52.309Z,5.41
2022-11-28T11:49:29.787Z,5.31
2022-11-28T11:51:59.199Z,5.24
2022-11-28T11:54:26.430Z,5.17
2022-11-28T11:57:11.234Z,5.06
2022-11-28T12:00:14.637Z,5.48
2022-11-28T12:02:46.557Z,5.52
2022-11-28T12:06:14.127Z,5.52
2022-11-28T12:09:26.969Z,5.57
2022-11-28T12:12:01.517Z,5.48
2022-11-28T12:14:32.773Z,5.57
2022-11-28T12:17:57.221Z,5.66
2022-11-28T12:20:23.315Z,5.73
2022-11-28T12:23:07.019Z,5.58
2022-11-28T12:25:43.512Z,5.77
2022-11-28T12:28:41.863Z,5.76
2022-11-28T12:31:16.779Z,5.71
2022-11-28T12:33:55.751Z,5.77
2022-11-28T12:36:49.424Z,5.79
2022-11-28T12:39:23.288Z,5.40
2022-11-28T12:42:12.404Z,5.75
2022-11-28T12:45:08.619Z,5.83
2022-11-28T12:47:50.553Z,5.86
2022-11-28T12:50:36.804Z,5.82
2022-11-28T12:53:03.745Z,5.81
2022-11-28T12:55:46.721Z,5.82
2022-11-28T12:58:23.994Z,5.61
2022-11-28T13:01:32.962Z,5.75
2022-11-28T13:04:25.289Z,5.55
2022-11-28T13:07:17.073Z,5.79
2022-11-28T13:10:03.604Z,5.83
2022-11-28T13:13:13.349Z,5.78
2022-11-28T13:16:04.842Z,5.73
2022-11-28T13:18:52.539Z,5.56
2022-11-28T13:21:32.261Z,5.40
2022-11-28T13:24:11.490Z,5.82
2022-11-28T13:27:07.983Z,5.79
2022-11-28T13:29:43.615Z,5.84
2022-11-28T13:32:28.691Z,5.87
2022-11-28T13:34:56.246Z,5.74
2022-11-28T13:40:42.133Z,5.85
2022-11-28T13:43:34.282Z,5.94
2022-11-28T13:46:01.870Z,6.02
2022-11-28T13:49:13.684Z,5.96
2022-11-28T13:51:31.966Z,5.83
2022-11-28T13:54:31.935Z,5.88
2022-11-28T13:57:29.023Z,5.81
2022-11-28T14:00:01.655Z,5.86
2022-11-28T14:02:39.392Z,5.81
2022-11-28T14:05:26.356Z,5.75
2022-11-28T14:07:56.029Z,5.75
2022-11-28T14:10:45.935Z,5.82
2022-11-28T14:13:23.162Z,5.83
2022-11-28T14:16:26.111Z,5.89
2022-11-28T14:18:57.792Z,5.96
2022-11-28T14:21:49.646Z,5.67
2022-11-28T14:24:41.315Z,5.94
2022-11-28T14:27:26.064Z,5.98
2022-11-28T14:29:55.523Z,6.01
2022-11-28T14:32:38.941Z,5.99
2022-11-28T14:35:17.273Z,5.92
2022-11-28T14:37:53.892Z,5.96
2022-11-28T14:41:11.553Z,6.03
2022-11-28T14:43:46.130Z,5.99
2022-11-28T14:46:16.189Z,5.99
2022-11-28T14:48:58.664Z,6.03
2022-11-28T14:51:44.280Z,6.06
2022-11-28T14:54:35.426Z,5.77
2022-11-28T14:57:16.447Z,6.07
2022-11-28T14:59:44.005Z,5.85
2022-11-28T15:02:11.374Z,6.09
2022-11-28T15:04:58.957Z,6.11
2022-11-28T15:07:53.887Z,6.07
2022-11-28T15:10:49.030Z,6.01
2022-11-28T15:13:19.037Z,6.00
2022-11-28T15:15:48.737Z,5.96
2022-11-28T15:18:18.821Z,6.03
2022-11-28T15:20:53.736Z,5.67
2022-11-28T15:23:33.057Z,6.00
2022-11-28T15:26:02.047Z,6.02
2022-11-28T15:28:32.384Z,5.90
2022-11-28T15:31:02.097Z,5.93
2022-11-28T15:33:30.236Z,6.02
2022-11-28T15:36:10.640Z,6.02
2022-11-28T15:38:41.138Z,5.98
2022-11-28T15:41:09.380Z,5.97
2022-11-28T15:43:41.771Z,5.62
2022-11-28T15:46:19.277Z,5.93
2022-11-28T15:48:52.281Z,5.93
2022-11-28T15:51:27.810Z,5.91
2022-11-28T15:53:55.380Z,5.92
2022-11-28T15:56:23.644Z,5.96
2022-11-28T15:58:52.964Z,5.95
2022-11-28T16:01:25.596Z,5.91
2022-11-28T16:03:55.771Z,5.92
2022-11-28T16:06:26.113Z,5.80
2022-11-28T16:08:56.984Z,5.84
2022-11-28T16:11:26.918Z,5.84
2022-11-28T16:13:57.334Z,5.92
2022-11-28T16:16:32.942Z,5.86
2022-11-28T16:19:02.391Z,5.91
2022-11-28T16:21:35.929Z,5.84
2022-11-28T16:24:16.134Z,5.89
2022-11-28T16:26:54.235Z,5.87
2022-11-28T16:29:24.373Z,5.91
2022-11-28T16:31:51.677Z,5.41
2022-11-28T16:34:46.706Z,5.87
2022-11-28T16:37:14.291Z,5.79
2022-11-28T16:39:42.038Z,5.79
2022-11-28T16:42:17.451Z,5.87
2022-11-28T16:44:44.714Z,5.91
2022-11-28T16:47:30.265Z,5.92
2022-11-28T16:50:15.392Z,5.87
2022-11-28T16:52:53.552Z,5.96
2022-11-28T16:55:29.617Z,5.92
2022-11-28T16:58:08.452Z,5.95
2022-11-28T17:00:36.135Z,5.95
2022-11-28T17:03:06.441Z,5.89
2022-11-28T17:05:36.092Z,5.96
2022-11-28T17:08:03.278Z,5.96
2022-11-28T17:10:30.300Z,5.90
2022-11-28T17:12:57.493Z,5.95
2022-11-28T17:15:24.592Z,5.92
2022-11-28T17:17:52.271Z,5.91
2022-11-28T17:20:19.588Z,5.93
2022-11-28T17:22:47.819Z,5.96
2022-11-28T17:25:17.844Z,5.95
2022-11-28T17:27:45.398Z,5.96
2022-11-28T17:30:16.467Z,5.76
2022-11-28T17:32:43.639Z,5.38
2022-11-28T17:35:19.988Z,5.91
2022-11-28T17:37:47.010Z,5.93
2022-11-28T17:40:32.810Z,5.86
2022-11-28T17:43:01.113Z,5.87
2022-11-28T17:45:31.074Z,5.87
2022-11-28T17:47:58.874Z,5.76
2022-11-28T17:50:26.568Z,5.93
2022-11-28T17:52:53.777Z,5.90
2022-11-28T17:55:20.900Z,5.98
2022-11-28T17:57:48.178Z,5.92
2022-11-28T18:00:16.786Z,5.96
2022-11-28T18:02:44.907Z,5.99
2022-11-28T18:05:13.109Z,5.93
2022-11-28T18:07:40.775Z,5.95
2022-11-28T18:10:11.578Z,5.98
2022-11-28T18:12:39.385Z,5.96
2022-11-28T18:15:10.104Z,5.95
2022-11-28T18:17:37.994Z,5.99
2022-11-28T18:20:05.817Z,6.02
2022-11-28T18:22:32.810Z,5.60
2022-11-28T18:25:00.512Z,6.05
2022-11-28T18:27:28.074Z,5.92
2022-11-28T18:29:55.076Z,5.99
2022-11-28T18:32:23.187Z,5.92
2022-11-28T18:34:50.442Z,6.00
2022-11-28T18:37:17.519Z,6.00
2022-11-28T18:39:44.759Z,5.97
2022-11-28T18:42:11.869Z,5.95
2022-11-28T18:44:38.932Z,6.00
2022-11-28T18:47:05.949Z,5.79
2022-11-28T18:49:32.934Z,6.09
2022-11-28T18:51:59.909Z,5.99
2022-11-28T18:54:30.960Z,5.96
2022-11-28T18:56:57.952Z,6.11
2022-11-28T18:59:25.410Z,5.73
2022-11-28T19:01:52.762Z,6.14
2022-11-28T19:04:19.815Z,6.13
2022-11-28T19:06:48.551Z,6.07
2022-11-28T19:09:16.897Z,6.16
2022-11-28T19:11:45.156Z,5.81
2022-11-28T19:14:17.709Z,6.18
2022-11-28T19:16:53.504Z,6.23
2022-11-28T19:19:20.672Z,6.21
2022-11-28T19:21:49.749Z,6.22
2022-11-28T19:24:21.173Z,6.25
2022-11-28T19:26:50.024Z,6.17
2022-11-28T19:29:17.636Z,6.23
2022-11-28T19:31:45.046Z,6.22
2022-11-28T19:34:15.224Z,6.23
2022-11-28T19:36:47.684Z,6.18
2022-11-28T19:39:23.952Z,6.25
2022-11-28T19:41:54.676Z,6.20
2022-11-28T19:44:24.537Z,6.19
2022-11-28T19:46:53.012Z,6.20
2022-11-28T19:49:23.135Z,6.21
2022-11-28T19:51:50.956Z,6.23
2022-11-28T19:54:21.509Z,6.20
2022-11-28T19:56:49.058Z,6.20
2022-11-28T19:59:16.872Z,6.06
2022-11-28T20:01:44.222Z,6.19
2022-11-28T20:04:11.579Z,6.20
2022-11-28T20:06:38.752Z,6.23
2022-11-28T20:09:11.981Z,6.03
2022-11-28T20:11:42.880Z,6.26
2022-11-28T20:14:16.452Z,6.28
2022-11-28T20:16:44.327Z,5.93
2022-11-28T20:19:14.159Z,6.24
2022-11-28T20:21:41.933Z,6.21
2022-11-28T20:24:10.344Z,6.29
2022-11-28T20:26:40.469Z,6.31
2022-11-28T20:29:11.784Z,6.31
2022-11-28T20:31:46.206Z,5.99
2022-11-28T20:34:17.105Z,6.31
2022-11-28T20:36:44.890Z,6.31
2022-11-28T20:39:12.808Z,6.11
2022-11-28T20:41:39.791Z,6.32
2022-11-28T20:44:10.242Z,6.31
2022-11-28T20:46:38.135Z,6.33
2022-11-28T20:49:06.900Z,6.31
2022-11-28T20:51:35.162Z,6.29
2022-11-28T20:54:04.687Z,6.25
2022-11-28T20:56:51.664Z,6.35
2022-11-28T20:59:21.933Z,6.37
2022-11-28T21:01:48.973Z,6.28
2022-11-28T21:04:17.565Z,6.35
2022-11-28T21:06:47.125Z,6.33
2022-11-28T21:09:14.762Z,6.37
2022-11-28T21:11:56.969Z,6.42
2022-11-28T21:14:25.792Z,6.41
2022-11-28T21:16:52.954Z,6.37
2022-11-28T21:19:20.099Z,6.47
2022-11-28T21:21:47.051Z,6.07
2022-11-28T21:24:14.369Z,6.45
2022-11-28T21:26:46.395Z,6.43
2022-11-28T21:29:21.262Z,6.45
2022-11-28T21:31:48.456Z,6.22
2022-11-28T21:34:16.683Z,6.45
2022-11-28T21:36:44.779Z,6.43
2022-11-28T21:39:14.794Z,6.22
2022-11-28T21:41:42.090Z,6.44
2022-11-28T21:44:09.600Z,6.44
2022-11-28T21:46:36.651Z,6.43
2022-11-28T21:49:03.699Z,6.42
2022-11-28T21:51:30.705Z,6.47
2022-11-28T21:53:58.065Z,6.28
2022-11-28T21:56:25.670Z,6.52
2022-11-28T21:58:54.107Z,6.25
2022-11-28T22:01:21.510Z,6.53
2022-11-28T22:03:49.367Z,6.53
2022-11-28T22:06:23.037Z,6.52
2022-11-28T22:08:51.408Z,6.48
2022-11-28T22:11:21.928Z,6.51
2022-11-28T22:13:50.007Z,6.53
2022-11-28T22:16:18.666Z,6.52
2022-11-28T22:18:47.289Z,6.53
2022-11-28T22:21:50.533Z,6.51
2022-11-28T22:24:08.216Z,6.52
2022-11-28T22:26:35.958Z,6.52
2022-11-28T22:29:04.646Z,6.50
2022-11-28T22:31:32.840Z,6.14
2022-11-28T22:34:00.168Z,6.57
2022-11-28T22:36:27.538Z,6.47
2022-11-28T22:38:56.896Z,6.60
2022-11-28T22:41:29.409Z,6.48
2022-11-28T22:44:00.488Z,6.53
2022-11-28T22:46:28.720Z,6.53
2022-11-28T22:48:56.145Z,6.55
2022-11-28T22:51:25.477Z,6.24
2022-11-28T22:53:58.988Z,6.53
2022-11-28T22:56:28.690Z,6.49
2022-11-28T22:58:55.971Z,6.52
2022-11-28T23:01:27.174Z,6.49
2022-11-28T23:03:55.113Z,6.31
2022-11-28T23:06:26.506Z,6.55
2022-11-28T23:08:58.398Z,6.53
2022-11-28T23:11:32.727Z,6.55
2022-11-28T23:14:01.318Z,6.55
2022-11-28T23:16:31.028Z,6.28
2022-11-28T23:19:00.965Z,6.49
2022-11-28T23:21:33.597Z,6.45
2022-11-28T23:24:01.211Z,6.56
2022-11-28T23:26:30.707Z,6.06
2022-11-28T23:29:00.533Z,6.19
2022-11-28T23:31:30.862Z,6.58
2022-11-28T23:34:00.411Z,6.59
2022-11-28T23:36:37.014Z,6.61
2022-11-28T23:39:18.326Z,6.58
2022-11-28T23:41:45.939Z,6.59
2022-11-28T23:44:14.253Z,6.59
2022-11-28T23:46:41.978Z,6.52
2022-11-28T23:49:09.764Z,6.59
2022-11-28T23:51:37.762Z,6.60
2022-11-28T23:54:04.895Z,6.21
2022-11-28T23:56:35.256Z,6.59
2022-11-28T23:59:04.486Z,6.58
